sensor_id;sensor_type;location;lat;lon;timestamp;P1;durP1;ratioP1;P2;durP2;ratioP2
21140;SDS011;10728;53.284;10.314;2022-12-05T00:02:02;48.37;;;22.43;;
21140;SDS011;10728;53.284;10.314;2022-12-05T00:04:28;46.50;;;23.27;;
21140;SDS011;10728;53.284;10.314;2022-12-05T00:06:57;48.07;;;22.57;;
21140;SDS011;10728;53.284;10.314;2022-12-05T00:09:23;43.77;;;21.63;;
21140;SDS011;10728;53.284;10.314;2022-12-05T00:11:49;48.87;;;24.40;;
21140;SDS011;10728;53.284;10.314;2022-12-05T00:14:14;46.10;;;22.63;;
21140;SDS011;10728;53.284;10.314;2022-12-05T00:16:40;49.47;;;22.50;;
21140;SDS011;10728;53.284;10.314;2022-12-05T00:19:08;44.97;;;21.83;;
21140;SDS011;10728;53.284;10.314;2022-12-05T00:21:35;46.90;;;22.33;;
21140;SDS011;10728;53.284;10.314;2022-12-05T00:24:02;47.13;;;22.47;;
21140;SDS011;10728;53.284;10.314;2022-12-05T00:26:47;38.60;;;21.30;;
21140;SDS011;10728;53.284;10.314;2022-12-05T00:29:13;43.03;;;21.60;;
21140;SDS011;10728;53.284;10.314;2022-12-05T00:31:38;40.67;;;21.83;;
21140;SDS011;10728;53.284;10.314;2022-12-05T00:34:04;44.23;;;21.30;;
21140;SDS011;10728;53.284;10.314;2022-12-05T00:36:30;48.07;;;22.63;;
21140;SDS011;10728;53.284;10.314;2022-12-05T00:39:00;44.00;;;20.60;;
21140;SDS011;10728;53.284;10.314;2022-12-05T00:41:28;45.30;;;21.50;;
21140;SDS011;10728;53.284;10.314;2022-12-05T00:43:57;40.37;;;21.73;;
21140;SDS011;10728;53.284;10.314;2022-12-05T00:46:24;41.93;;;22.43;;
21140;SDS011;10728;53.284;10.314;2022-12-05T00:48:51;38.10;;;21.03;;
21140;SDS011;10728;53.284;10.314;2022-12-05T00:51:19;38.97;;;21.10;;
21140;SDS011;10728;53.284;10.314;2022-12-05T00:53:47;35.63;;;19.37;;
21140;SDS011;10728;53.284;10.314;2022-12-05T00:56:16;41.07;;;19.23;;
21140;SDS011;10728;53.284;10.314;2022-12-05T00:58:43;41.20;;;22.00;;
21140;SDS011;10728;53.284;10.314;2022-12-05T01:01:23;47.97;;;22.53;;
21140;SDS011;10728;53.284;10.314;2022-12-05T01:04:15;43.73;;;20.87;;
21140;SDS011;10728;53.284;10.314;2022-12-05T01:06:55;45.97;;;21.80;;
21140;SDS011;10728;53.284;10.314;2022-12-05T01:09:21;42.13;;;22.13;;
21140;SDS011;10728;53.284;10.314;2022-12-05T01:11:47;44.27;;;23.13;;
21140;SDS011;10728;53.284;10.314;2022-12-05T01:22:24;43.00;;;21.37;;
21140;SDS011;10728;53.284;10.314;2022-12-05T01:24:50;40.53;;;20.83;;
21140;SDS011;10728;53.284;10.314;2022-12-05T01:27:17;43.60;;;21.23;;
21140;SDS011;10728;53.284;10.314;2022-12-05T01:29:43;40.40;;;21.53;;
21140;SDS011;10728;53.284;10.314;2022-12-05T01:32:08;40.07;;;20.83;;
21140;SDS011;10728;53.284;10.314;2022-12-05T01:34:34;36.87;;;20.77;;
21140;SDS011;10728;53.284;10.314;2022-12-05T01:36:59;39.93;;;20.60;;
21140;SDS011;10728;53.284;10.314;2022-12-05T01:39:26;41.13;;;21.73;;
21140;SDS011;10728;53.284;10.314;2022-12-05T01:41:51;41.13;;;20.60;;
21140;SDS011;10728;53.284;10.314;2022-12-05T01:46:49;47.03;;;21.77;;
21140;SDS011;10728;53.284;10.314;2022-12-05T01:49:25;42.33;;;21.07;;
21140;SDS011;10728;53.284;10.314;2022-12-05T01:54:40;36.10;;;20.60;;
21140;SDS011;10728;53.284;10.314;2022-12-05T01:57:07;40.97;;;21.70;;
21140;SDS011;10728;53.284;10.314;2022-12-05T01:59:36;48.77;;;22.13;;
21140;SDS011;10728;53.284;10.314;2022-12-05T02:02:04;40.03;;;21.97;;
21140;SDS011;10728;53.284;10.314;2022-12-05T02:04:33;40.03;;;22.10;;
21140;SDS011;10728;53.284;10.314;2022-12-05T02:07:10;39.23;;;20.37;;
21140;SDS011;10728;53.284;10.314;2022-12-05T02:09:36;40.40;;;21.67;;
21140;SDS011;10728;53.284;10.314;2022-12-05T02:12:11;38.17;;;20.33;;
21140;SDS011;10728;53.284;10.314;2022-12-05T02:31:00;35.43;;;20.30;;
21140;SDS011;10728;53.284;10.314;2022-12-05T02:33:38;37.73;;;20.93;;
21140;SDS011;10728;53.284;10.314;2022-12-05T02:36:22;36.47;;;18.93;;
21140;SDS011;10728;53.284;10.314;2022-12-05T02:41:59;39.37;;;21.13;;
21140;SDS011;10728;53.284;10.314;2022-12-05T02:44:36;37.90;;;20.07;;
21140;SDS011;10728;53.284;10.314;2022-12-05T02:47:05;39.23;;;20.97;;
21140;SDS011;10728;53.284;10.314;2022-12-05T02:49:51;38.33;;;20.40;;
21140;SDS011;10728;53.284;10.314;2022-12-05T02:52:18;36.83;;;20.00;;
21140;SDS011;10728;53.284;10.314;2022-12-05T02:54:49;37.20;;;20.03;;
21140;SDS011;10728;53.284;10.314;2022-12-05T02:57:15;37.27;;;20.67;;
21140;SDS011;10728;53.284;10.314;2022-12-05T02:59:42;42.90;;;21.93;;
21140;SDS011;10728;53.284;10.314;2022-12-05T03:04:49;40.43;;;19.93;;
21140;SDS011;10728;53.284;10.314;2022-12-05T03:10:01;36.43;;;19.90;;
21140;SDS011;10728;53.284;10.314;2022-12-05T03:18:31;43.07;;;21.17;;
21140;SDS011;10728;53.284;10.314;2022-12-05T03:21:30;40.23;;;21.13;;
21140;SDS011;10728;53.284;10.314;2022-12-05T03:24:26;40.17;;;20.43;;
21140;SDS011;10728;53.284;10.314;2022-12-05T03:27:39;39.27;;;20.30;;
21140;SDS011;10728;53.284;10.314;2022-12-05T03:30:06;45.43;;;21.73;;
21140;SDS011;10728;53.284;10.314;2022-12-05T03:33:09;43.70;;;21.57;;
21140;SDS011;10728;53.284;10.314;2022-12-05T03:36:28;47.77;;;22.37;;
21140;SDS011;10728;53.284;10.314;2022-12-05T03:39:21;42.63;;;20.83;;
21140;SDS011;10728;53.284;10.314;2022-12-05T03:42:30;48.70;;;22.17;;
21140;SDS011;10728;53.284;10.314;2022-12-05T03:45:09;41.07;;;20.67;;
21140;SDS011;10728;53.284;10.314;2022-12-05T03:50:24;46.23;;;22.90;;
21140;SDS011;10728;53.284;10.314;2022-12-05T03:53:25;44.63;;;22.00;;
21140;SDS011;10728;53.284;10.314;2022-12-05T03:57:14;39.60;;;19.83;;
21140;SDS011;10728;53.284;10.314;2022-12-05T04:00:10;45.07;;;21.03;;
21140;SDS011;10728;53.284;10.314;2022-12-05T04:05:51;46.17;;;20.33;;
21140;SDS011;10728;53.284;10.314;2022-12-05T04:08:20;47.80;;;22.57;;
21140;SDS011;10728;53.284;10.314;2022-12-05T04:10:48;43.13;;;21.57;;
21140;SDS011;10728;53.284;10.314;2022-12-05T04:13:48;41.70;;;20.60;;
21140;SDS011;10728;53.284;10.314;2022-12-05T04:16:49;43.83;;;21.67;;
21140;SDS011;10728;53.284;10.314;2022-12-05T04:19:42;43.93;;;21.00;;
21140;SDS011;10728;53.284;10.314;2022-12-05T04:23:08;41.97;;;21.20;;
21140;SDS011;10728;53.284;10.314;2022-12-05T04:26:20;42.53;;;20.47;;
21140;SDS011;10728;53.284;10.314;2022-12-05T04:31:18;47.80;;;23.03;;
21140;SDS011;10728;53.284;10.314;2022-12-05T04:34:06;42.10;;;20.90;;
21140;SDS011;10728;53.284;10.314;2022-12-05T04:45:07;42.63;;;19.60;;
21140;SDS011;10728;53.284;10.314;2022-12-05T04:47:50;48.53;;;23.20;;
21140;SDS011;10728;53.284;10.314;2022-12-05T04:50:40;55.17;;;22.23;;
21140;SDS011;10728;53.284;10.314;2022-12-05T04:53:55;43.73;;;20.80;;
21140;SDS011;10728;53.284;10.314;2022-12-05T04:59:40;47.07;;;21.33;;
21140;SDS011;10728;53.284;10.314;2022-12-05T05:02:21;53.17;;;22.63;;
21140;SDS011;10728;53.284;10.314;2022-12-05T05:04:53;47.73;;;22.73;;
21140;SDS011;10728;53.284;10.314;2022-12-05T05:07:20;48.37;;;22.83;;
21140;SDS011;10728;53.284;10.314;2022-12-05T05:09:46;46.13;;;21.27;;
21140;SDS011;10728;53.284;10.314;2022-12-05T05:12:12;50.67;;;22.00;;
21140;SDS011;10728;53.284;10.314;2022-12-05T05:14:38;54.33;;;24.03;;
21140;SDS011;10728;53.284;10.314;2022-12-05T05:17:03;57.47;;;24.20;;
21140;SDS011;10728;53.284;10.314;2022-12-05T05:19:28;56.70;;;23.40;;
21140;SDS011;10728;53.284;10.314;2022-12-05T05:21:54;54.37;;;24.30;;
21140;SDS011;10728;53.284;10.314;2022-12-05T05:24:20;49.07;;;22.57;;
21140;SDS011;10728;53.284;10.314;2022-12-05T05:26:47;53.90;;;23.37;;
21140;SDS011;10728;53.284;10.314;2022-12-05T05:29:14;56.27;;;25.43;;
21140;SDS011;10728;53.284;10.314;2022-12-05T05:31:40;53.97;;;23.97;;
21140;SDS011;10728;53.284;10.314;2022-12-05T05:34:06;55.03;;;24.97;;
21140;SDS011;10728;53.284;10.314;2022-12-05T05:36:32;57.60;;;25.70;;
21140;SDS011;10728;53.284;10.314;2022-12-05T05:39:12;55.10;;;24.90;;
21140;SDS011;10728;53.284;10.314;2022-12-05T05:41:39;59.97;;;26.63;;
21140;SDS011;10728;53.284;10.314;2022-12-05T05:44:04;66.10;;;26.67;;
21140;SDS011;10728;53.284;10.314;2022-12-05T05:46:31;57.47;;;25.60;;
21140;SDS011;10728;53.284;10.314;2022-12-05T05:48:57;59.70;;;25.87;;
21140;SDS011;10728;53.284;10.314;2022-12-05T05:51:23;61.63;;;27.40;;
21140;SDS011;10728;53.284;10.314;2022-12-05T05:53:54;61.83;;;26.43;;
21140;SDS011;10728;53.284;10.314;2022-12-05T05:56:22;61.73;;;26.53;;
21140;SDS011;10728;53.284;10.314;2022-12-05T05:58:47;65.93;;;26.90;;
21140;SDS011;10728;53.284;10.314;2022-12-05T06:01:34;59.93;;;27.67;;
21140;SDS011;10728;53.284;10.314;2022-12-05T06:04:00;70.23;;;28.07;;
21140;SDS011;10728;53.284;10.314;2022-12-05T06:06:26;63.17;;;26.00;;
21140;SDS011;10728;53.284;10.314;2022-12-05T06:08:52;71.13;;;28.40;;
21140;SDS011;10728;53.284;10.314;2022-12-05T06:11:19;70.50;;;27.23;;
21140;SDS011;10728;53.284;10.314;2022-12-05T06:13:48;74.70;;;28.93;;
21140;SDS011;10728;53.284;10.314;2022-12-05T06:16:17;71.13;;;28.33;;
21140;SDS011;10728;53.284;10.314;2022-12-05T06:18:43;61.77;;;27.23;;
21140;SDS011;10728;53.284;10.314;2022-12-05T06:21:08;73.23;;;28.37;;
21140;SDS011;10728;53.284;10.314;2022-12-05T06:24:00;69.73;;;28.60;;
21140;SDS011;10728;53.284;10.314;2022-12-05T06:26:25;73.90;;;28.73;;
21140;SDS011;10728;53.284;10.314;2022-12-05T06:28:53;65.77;;;27.47;;
21140;SDS011;10728;53.284;10.314;2022-12-05T06:31:40;66.87;;;27.13;;
21140;SDS011;10728;53.284;10.314;2022-12-05T06:36:53;74.90;;;29.17;;
21140;SDS011;10728;53.284;10.314;2022-12-05T06:39:19;75.13;;;29.60;;
21140;SDS011;10728;53.284;10.314;2022-12-05T06:41:51;71.67;;;27.43;;
21140;SDS011;10728;53.284;10.314;2022-12-05T07:06:32;77.40;;;28.90;;
21140;SDS011;10728;53.284;10.314;2022-12-05T07:17:10;77.53;;;30.03;;
21140;SDS011;10728;53.284;10.314;2022-12-05T08:14:28;58.10;;;22.80;;
21140;SDS011;10728;53.284;10.314;2022-12-05T08:16:53;55.60;;;22.77;;
21140;SDS011;10728;53.284;10.314;2022-12-05T09:18:46;41.60;;;18.60;;
21140;SDS011;10728;53.284;10.314;2022-12-05T09:21:16;45.37;;;17.23;;
21140;SDS011;10728;53.284;10.314;2022-12-05T09:39:57;43.53;;;16.97;;
21140;SDS011;10728;53.284;10.314;2022-12-05T10:38:45;34.40;;;15.80;;
21140;SDS011;10728;53.284;10.314;2022-12-05T10:51:58;33.83;;;14.83;;
21140;SDS011;10728;53.284;10.314;2022-12-05T10:54:28;37.60;;;15.90;;
21140;SDS011;10728;53.284;10.314;2022-12-05T10:56:58;33.37;;;14.57;;
21140;SDS011;10728;53.284;10.314;2022-12-05T11:15:37;31.17;;;14.03;;
21140;SDS011;10728;53.284;10.314;2022-12-05T11:18:16;33.93;;;14.83;;
21140;SDS011;10728;53.284;10.314;2022-12-05T11:21:14;34.03;;;13.77;;
21140;SDS011;10728;53.284;10.314;2022-12-05T11:23:42;35.47;;;16.10;;
21140;SDS011;10728;53.284;10.314;2022-12-05T11:26:15;38.83;;;15.57;;
21140;SDS011;10728;53.284;10.314;2022-12-05T11:28:59;41.10;;;15.70;;
21140;SDS011;10728;53.284;10.314;2022-12-05T11:31:25;32.87;;;14.70;;
21140;SDS011;10728;53.284;10.314;2022-12-05T11:34:19;33.77;;;15.53;;
21140;SDS011;10728;53.284;10.314;2022-12-05T11:36:59;32.83;;;15.13;;
21140;SDS011;10728;53.284;10.314;2022-12-05T12:09:39;33.67;;;15.43;;
21140;SDS011;10728;53.284;10.314;2022-12-05T12:12:23;30.43;;;14.33;;
21140;SDS011;10728;53.284;10.314;2022-12-05T13:07:36;26.93;;;12.30;;
21140;SDS011;10728;53.284;10.314;2022-12-05T19:42:22;16.30;;;9.17;;
21140;SDS011;10728;53.284;10.314;2022-12-05T19:44:47;20.10;;;10.17;;
21140;SDS011;10728;53.284;10.314;2022-12-05T19:47:13;18.30;;;10.17;;
21140;SDS011;10728;53.284;10.314;2022-12-05T19:49:39;17.10;;;9.70;;
21140;SDS011;10728;53.284;10.314;2022-12-05T19:52:04;15.90;;;9.33;;
21140;SDS011;10728;53.284;10.314;2022-12-05T19:54:30;16.13;;;9.00;;
21140;SDS011;10728;53.284;10.314;2022-12-05T19:56:55;16.17;;;9.97;;
21140;SDS011;10728;53.284;10.314;2022-12-05T19:59:25;15.97;;;9.03;;
21140;SDS011;10728;53.284;10.314;2022-12-05T20:01:50;19.30;;;9.97;;
21140;SDS011;10728;53.284;10.314;2022-12-05T20:04:16;17.43;;;9.83;;
21140;SDS011;10728;53.284;10.314;2022-12-05T20:06:48;17.63;;;9.90;;
21140;SDS011;10728;53.284;10.314;2022-12-05T20:09:15;17.07;;;9.80;;
21140;SDS011;10728;53.284;10.314;2022-12-05T20:11:43;17.13;;;10.73;;
21140;SDS011;10728;53.284;10.314;2022-12-05T20:14:11;20.50;;;11.40;;
21140;SDS011;10728;53.284;10.314;2022-12-05T20:16:47;20.20;;;12.17;;
21140;SDS011;10728;53.284;10.314;2022-12-05T20:19:12;18.70;;;10.97;;
21140;SDS011;10728;53.284;10.314;2022-12-05T20:21:38;20.10;;;11.47;;
21140;SDS011;10728;53.284;10.314;2022-12-05T20:24:04;16.33;;;9.67;;
21140;SDS011;10728;53.284;10.314;2022-12-05T20:26:35;17.17;;;10.17;;
21140;SDS011;10728;53.284;10.314;2022-12-05T20:29:17;15.37;;;9.77;;
21140;SDS011;10728;53.284;10.314;2022-12-05T20:31:44;16.07;;;10.07;;
21140;SDS011;10728;53.284;10.314;2022-12-05T20:34:11;17.97;;;10.47;;
21140;SDS011;10728;53.284;10.314;2022-12-05T20:36:37;17.77;;;10.43;;
21140;SDS011;10728;53.284;10.314;2022-12-05T20:39:04;16.23;;;10.23;;
21140;SDS011;10728;53.284;10.314;2022-12-05T20:41:32;16.97;;;9.77;;
21140;SDS011;10728;53.284;10.314;2022-12-05T20:44:00;15.67;;;10.17;;
21140;SDS011;10728;53.284;10.314;2022-12-05T20:46:47;16.37;;;9.97;;
21140;SDS011;10728;53.284;10.314;2022-12-05T20:49:18;20.23;;;11.23;;
21140;SDS011;10728;53.284;10.314;2022-12-05T20:51:44;16.93;;;9.73;;
21140;SDS011;10728;53.284;10.314;2022-12-05T20:54:47;18.17;;;10.23;;
21140;SDS011;10728;53.284;10.314;2022-12-05T20:57:17;32.80;;;16.83;;
21140;SDS011;10728;53.284;10.314;2022-12-05T20:59:43;21.43;;;12.63;;
21140;SDS011;10728;53.284;10.314;2022-12-05T21:02:08;21.17;;;10.17;;
21140;SDS011;10728;53.284;10.314;2022-12-05T21:04:34;17.07;;;9.90;;
21140;SDS011;10728;53.284;10.314;2022-12-05T21:07:26;14.40;;;9.50;;
21140;SDS011;10728;53.284;10.314;2022-12-05T21:09:56;15.30;;;9.43;;
21140;SDS011;10728;53.284;10.314;2022-12-05T21:12:21;13.17;;;8.63;;
21140;SDS011;10728;53.284;10.314;2022-12-05T21:14:48;16.00;;;9.67;;
21140;SDS011;10728;53.284;10.314;2022-12-05T21:17:15;17.10;;;9.77;;
21140;SDS011;10728;53.284;10.314;2022-12-05T21:19:43;18.60;;;10.13;;
21140;SDS011;10728;53.284;10.314;2022-12-05T21:22:10;12.87;;;8.03;;
21140;SDS011;10728;53.284;10.314;2022-12-05T21:24:35;17.17;;;9.70;;
21140;SDS011;10728;53.284;10.314;2022-12-05T21:27:01;13.70;;;8.17;;
21140;SDS011;10728;53.284;10.314;2022-12-05T21:29:29;14.47;;;8.23;;
21140;SDS011;10728;53.284;10.314;2022-12-05T21:32:07;16.43;;;8.83;;
21140;SDS011;10728;53.284;10.314;2022-12-05T21:37:40;12.73;;;8.60;;
21140;SDS011;10728;53.284;10.314;2022-12-05T21:40:06;12.13;;;8.07;;
21140;SDS011;10728;53.284;10.314;2022-12-05T21:42:52;13.83;;;8.73;;
21140;SDS011;10728;53.284;10.314;2022-12-05T21:45:18;13.97;;;7.77;;
21140;SDS011;10728;53.284;10.314;2022-12-05T21:47:44;15.37;;;8.60;;
21140;SDS011;10728;53.284;10.314;2022-12-05T21:50:10;14.60;;;7.77;;
21140;SDS011;10728;53.284;10.314;2022-12-05T21:52:36;12.57;;;6.97;;
21140;SDS011;10728;53.284;10.314;2022-12-05T21:55:23;11.03;;;6.90;;
21140;SDS011;10728;53.284;10.314;2022-12-05T21:59:04;13.63;;;7.63;;
21140;SDS011;10728;53.284;10.314;2022-12-05T22:01:30;10.13;;;7.13;;
21140;SDS011;10728;53.284;10.314;2022-12-05T22:03:57;12.17;;;7.77;;
21140;SDS011;10728;53.284;10.314;2022-12-05T22:06:29;10.60;;;7.13;;
21140;SDS011;10728;53.284;10.314;2022-12-05T22:09:08;11.93;;;7.20;;
21140;SDS011;10728;53.284;10.314;2022-12-05T22:12:00;14.67;;;7.30;;
21140;SDS011;10728;53.284;10.314;2022-12-05T22:14:28;12.47;;;7.27;;
21140;SDS011;10728;53.284;10.314;2022-12-05T22:17:00;11.20;;;7.20;;
21140;SDS011;10728;53.284;10.314;2022-12-05T22:19:26;11.43;;;7.73;;
21140;SDS011;10728;53.284;10.314;2022-12-05T22:21:54;12.33;;;7.83;;
21140;SDS011;10728;53.284;10.314;2022-12-05T22:24:23;12.50;;;8.00;;
21140;SDS011;10728;53.284;10.314;2022-12-05T22:26:51;11.10;;;7.00;;
21140;SDS011;10728;53.284;10.314;2022-12-05T22:29:17;10.93;;;6.90;;
21140;SDS011;10728;53.284;10.314;2022-12-05T22:38:22;13.93;;;7.03;;
21140;SDS011;10728;53.284;10.314;2022-12-05T22:41:12;10.73;;;6.37;;
21140;SDS011;10728;53.284;10.314;2022-12-05T22:44:49;11.63;;;7.23;;
21140;SDS011;10728;53.284;10.314;2022-12-05T22:47:38;11.57;;;7.30;;
21140;SDS011;10728;53.284;10.314;2022-12-05T22:50:06;10.30;;;7.30;;
21140;SDS011;10728;53.284;10.314;2022-12-05T22:52:40;10.50;;;6.60;;
21140;SDS011;10728;53.284;10.314;2022-12-05T22:55:07;10.93;;;6.97;;
21140;SDS011;10728;53.284;10.314;2022-12-05T22:58:11;11.70;;;6.80;;
21140;SDS011;10728;53.284;10.314;2022-12-05T23:01:21;10.33;;;6.87;;
21140;SDS011;10728;53.284;10.314;2022-12-05T23:04:58;12.37;;;7.67;;
